Search for airport 
image banner adimage banner adimage banner ad
image banner ad

21CA - Oxy Usa Inc Huntington Beach

Located in Huntington Beach, United States

ICAO - 21CA, IATA -

Data provided by Airmate  

General information

Coordinates: N33°41'2" W118°1'54"
Elevation is 40 feet MSL.
Magnetic variation is 14° East
View others Airports in California

Operational data

Special qualification required
Current time UTC:
Current local time:
Weather at : KSLI - Los Alamitos Aaf ( 12 km )
METAR: KSLI 291358Z 00000KT 10SM FEW200 18/18 A2994 RMK AO2A SLP141 T01790177
TAF: TAF KSLI 291302Z 2913/3019 VRB03KT 9999 FEW010 QNH2991INS BECMG 2915/2916 VRB06KT 9999 SKC QNH2981INS BECMG 3011/3012 VRB03KT 9999 BKN010 QNH2987INS TX28/2922Z TN17/2913Z
View NOTAMs / SUP AIP / TFR affecting this airport [VIEW]
Communications frequencies: [VIEW]

Runways:

Airport contact information

Address: Huntington Beach United States

Satellite view of 21CA